Time;durP1;ratioP1;P1;durP2;ratioP2;P2;SDS_P1;SDS_P2;PMS_P1;PMS_P2;Temp;Humidity;BMP_temperature;BMP_pressure;BME280_temperature;BME280_humidity;BME280_pressure;Samples;Min_cycle;Max_cycle;Signal;HPM_P1;HPM_P2
2023/06/11 00:00:41;;;;;;;13.85;6.50;;;;;;;17.13;73.59;98701.19;5047692;28;20058;-91
2023/06/11 00:03:07;;;;;;;9.65;7.25;;;;;;;17.02;73.70;98702.69;5047824;28;20032;-91
2023/06/11 00:05:32;;;;;;;10.18;6.65;;;;;;;17.04;73.99;98716.75;5048289;28;20031;-91
2023/06/11 00:08:00;;;;;;;8.98;6.63;;;;;;;17.04;73.79;98708.59;5048279;28;20078;-91
2023/06/11 00:10:26;;;;;;;9.15;6.57;;;;;;;17.11;73.93;98717.81;5043023;28;20055;-91
2023/06/11 00:12:52;;;;;;;9.07;5.47;;;;;;;17.07;73.66;98700.56;5026230;28;20044;-92
2023/06/11 00:15:17;;;;;;;11.57;6.22;;;;;;;17.07;73.57;98707.94;5027677;28;20025;-91
2023/06/11 00:17:43;;;;;;;10.23;7.45;;;;;;;17.01;74.03;98701.06;5028209;28;20102;-91
2023/06/11 00:20:09;;;;;;;12.45;6.25;;;;;;;17.11;73.67;98712.38;5027780;28;20024;-91
2023/06/11 00:22:37;;;;;;;10.75;6.28;;;;;;;17.06;73.73;98712.59;5027343;28;20024;-91
2023/06/11 00:25:03;;;;;;;9.52;6.35;;;;;;;16.95;74.15;98701.28;5028073;28;20056;-91
2023/06/11 00:27:28;;;;;;;9.27;6.57;;;;;;;16.96;74.32;98707.50;5040331;28;20021;-91
2023/06/11 00:29:54;;;;;;;13.60;6.05;;;;;;;16.89;74.71;98709.91;5029744;28;20029;-91
2023/06/11 00:32:19;;;;;;;9.30;6.63;;;;;;;16.88;74.71;98700.97;5028347;28;20090;-92
2023/06/11 00:34:45;;;;;;;10.38;6.65;;;;;;;16.92;74.80;98706.56;5024318;28;20667;-92
2023/06/11 00:37:11;;;;;;;12.25;7.35;;;;;;;16.91;74.74;98713.13;5030138;28;20032;-92
2023/06/11 00:39:37;;;;;;;12.15;7.30;;;;;;;16.85;74.71;98700.81;5035216;28;20036;-91
2023/06/11 00:42:02;;;;;;;10.75;7.47;;;;;;;16.83;75.00;98706.59;5031957;28;20062;-91
2023/06/11 00:44:29;;;;;;;10.75;7.57;;;;;;;16.87;74.80;98706.72;5040318;28;20075;-91
2023/06/11 00:46:56;;;;;;;14.73;7.70;;;;;;;16.86;74.91;98710.59;5046912;28;20471;-91
2023/06/11 00:49:21;;;;;;;9.55;6.80;;;;;;;16.87;74.80;98712.16;5047348;28;20085;-91
2023/06/11 00:51:46;;;;;;;13.98;7.35;;;;;;;16.90;74.46;98712.31;5046583;28;20048;-91
2023/06/11 00:54:13;;;;;;;10.82;6.47;;;;;;;17.04;74.29;98712.09;5047997;28;20440;-92
2023/06/11 00:56:41;;;;;;;10.70;6.75;;;;;;;16.97;74.47;98706.38;5063245;28;20040;-91
2023/06/11 00:59:07;;;;;;;12.57;7.25;;;;;;;16.86;74.53;98705.94;5045933;28;20024;-91
2023/06/11 01:01:35;;;;;;;11.32;6.63;;;;;;;16.76;74.44;98707.06;5046402;28;20544;-92
2023/06/11 01:04:01;;;;;;;13.02;7.18;;;;;;;16.77;74.79;98711.38;5046949;28;20024;-92
2023/06/11 01:06:28;;;;;;;10.02;6.32;;;;;;;16.77;74.60;98719.53;5063247;28;20112;-93
2023/06/11 01:08:57;;;;;;;10.85;6.72;;;;;;;16.76;74.53;98728.81;5047561;28;20382;-92
2023/06/11 01:11:22;;;;;;;10.15;7.00;;;;;;;16.67;74.35;98725.34;5048040;28;20031;-92
2023/06/11 01:13:48;;;;;;;12.32;7.95;;;;;;;16.68;74.96;98726.91;5046057;28;20470;-91
2023/06/11 01:16:29;;;;;;;11.82;6.50;;;;;;;16.66;74.59;98737.31;5046450;28;20110;-92
2023/06/11 01:19:03;;;;;;;9.55;6.90;;;;;;;16.63;74.61;98740.69;5079528;28;20039;-91
2023/06/11 01:21:33;;;;;;;10.63;6.50;;;;;;;16.56;74.78;98732.25;5032380;28;20556;-92
2023/06/11 01:24:04;;;;;;;16.13;6.28;;;;;;;16.59;75.13;98741.69;5006478;28;20036;-92
2023/06/11 01:27:27;;;;;;;16.15;6.13;;;;;;;16.53;75.31;98746.47;5043077;28;20490;-92
2023/06/11 01:29:52;;;;;;;10.95;6.95;;;;;;;16.49;75.47;98745.53;4962687;28;20039;-92
2023/06/11 01:32:19;;;;;;;12.50;6.60;;;;;;;16.56;75.30;98748.56;4941169;29;20031;-92
2023/06/11 01:34:45;;;;;;;7.65;6.10;;;;;;;16.57;75.02;98750.16;4981156;28;20033;-92
2023/06/11 01:37:11;;;;;;;11.38;7.47;;;;;;;16.56;75.16;98740.41;5018950;28;20418;-92
2023/06/11 01:39:37;;;;;;;10.18;6.78;;;;;;;16.48;75.18;98725.72;5021058;28;20025;-92
2023/06/11 01:42:03;;;;;;;8.13;5.88;;;;;;;16.61;75.19;98750.31;5012496;28;20057;-92
2023/06/11 01:44:29;;;;;;;9.32;6.60;;;;;;;16.53;74.78;98732.88;5030619;28;20029;-93
2023/06/11 01:46:54;;;;;;;8.85;5.90;;;;;;;16.67;74.54;98749.81;5005216;28;20068;-93
2023/06/11 01:49:20;;;;;;;14.65;10.63;;;;;;;16.62;74.40;98747.28;5022528;28;20033;-93
2023/06/11 01:51:45;;;;;;;9.05;5.82;;;;;;;16.61;74.42;98758.47;4998093;28;20610;-93
2023/06/11 01:54:11;;;;;;;9.27;6.00;;;;;;;16.46;74.44;98746.97;4986056;28;20033;-93
2023/06/11 01:56:36;;;;;;;7.32;5.80;;;;;;;16.61;74.38;98761.97;4997306;28;20032;-92
2023/06/11 01:59:01;;;;;;;10.13;6.30;;;;;;;16.49;74.77;98750.97;5005747;28;20425;-93
2023/06/11 02:01:28;;;;;;;11.68;5.80;;;;;;;16.43;74.52;98741.38;5021426;28;20483;-92
2023/06/11 02:03:55;;;;;;;8.93;6.22;;;;;;;16.46;74.64;98754.34;5007505;28;20016;-92
2023/06/11 02:06:20;;;;;;;9.07;5.95;;;;;;;16.43;74.61;98752.25;5006446;28;20115;-90
2023/06/11 02:08:46;;;;;;;11.18;5.80;;;;;;;16.37;74.78;98746.19;5007091;28;20494;-91
2023/06/11 02:11:11;;;;;;;9.05;5.63;;;;;;;16.33;74.64;98748.75;5005003;28;20415;-90
2023/06/11 02:13:37;;;;;;;8.38;5.70;;;;;;;16.29;74.79;98750.53;5005408;28;20032;-91
2023/06/11 02:16:02;;;;;;;8.80;6.20;;;;;;;16.30;74.53;98759.47;5005373;28;20087;-91
2023/06/11 02:18:27;;;;;;;13.52;6.10;;;;;;;16.29;74.75;98750.53;5005703;28;20095;-91
2023/06/11 02:20:53;;;;;;;9.23;6.03;;;;;;;16.21;74.64;98748.63;5001553;28;20029;-91
2023/06/11 02:23:18;;;;;;;9.90;6.30;;;;;;;16.28;74.63;98746.19;4985837;28;20017;-91
2023/06/11 02:25:44;;;;;;;8.98;6.50;;;;;;;16.05;74.99;98755.66;4986476;28;20052;-92
2023/06/11 02:28:10;;;;;;;8.90;6.25;;;;;;;16.03;75.40;98758.69;4985963;28;20447;-92
2023/06/11 02:30:35;;;;;;;8.45;6.38;;;;;;;16.06;75.09;98752.63;5001591;28;20211;-91
2023/06/11 02:33:01;;;;;;;10.25;6.28;;;;;;;16.19;74.87;98760.94;4998844;28;20063;-92
2023/06/11 02:35:26;;;;;;;10.00;6.40;;;;;;;16.05;75.81;98764.59;5003869;28;20052;-91
2023/06/11 02:37:52;;;;;;;8.40;6.60;;;;;;;15.94;76.58;98758.69;4998424;28;20041;-91
2023/06/11 02:40:17;;;;;;;8.95;6.30;;;;;;;15.93;76.06;98754.34;5015379;28;20564;-91
2023/06/11 02:42:43;;;;;;;10.35;6.68;;;;;;;15.93;75.83;98753.56;5009057;28;20033;-91
2023/06/11 02:45:09;;;;;;;8.95;6.45;;;;;;;16.02;75.92;98759.00;5009129;28;20009;-91
2023/06/11 02:47:34;;;;;;;11.68;6.57;;;;;;;16.02;75.62;98767.13;5010104;28;20029;-91
2023/06/11 02:50:00;;;;;;;9.70;6.18;;;;;;;15.92;75.77;98760.13;5009439;28;20048;-92
2023/06/11 02:52:25;;;;;;;9.05;6.28;;;;;;;16.10;75.33;98761.72;5020016;28;20422;-92
2023/06/11 02:54:50;;;;;;;9.07;6.70;;;;;;;16.31;74.76;98767.31;5028961;28;20498;-92
2023/06/11 02:57:16;;;;;;;7.35;6.00;;;;;;;16.42;74.21;98758.81;5028144;28;20070;-91
2023/06/11 02:59:41;;;;;;;8.82;6.22;;;;;;;16.45;74.22;98771.75;5024480;28;20029;-91
2023/06/11 03:02:07;;;;;;;7.88;6.22;;;;;;;16.34;74.45;98782.94;5015982;28;20029;-91
2023/06/11 03:04:32;;;;;;;9.40;6.50;;;;;;;16.28;74.88;98772.56;5015276;28;20422;-91
2023/06/11 03:06:58;;;;;;;10.50;6.55;;;;;;;16.23;74.78;98775.44;5024030;28;20122;-92
2023/06/11 03:09:24;;;;;;;11.35;6.18;;;;;;;16.27;74.82;98776.38;5018304;28;20032;-91
2023/06/11 03:11:53;;;;;;;9.80;6.70;;;;;;;16.18;74.81;98776.41;5021195;28;20036;-91
2023/06/11 03:14:24;;;;;;;8.48;6.55;;;;;;;16.17;75.16;98777.53;5028599;28;20060;-91
2023/06/11 03:16:50;;;;;;;;;;;;;;;16.24;74.96;98798.78;5030456;28;20032;-91
2023/06/11 03:19:17;;;;;;;8.05;6.55;;;;;;;16.08;74.96;98782.16;5044706;28;20336;-91
2023/06/11 03:21:42;;;;;;;9.45;6.05;;;;;;;16.16;74.77;98793.03;5028589;28;20028;-91
2023/06/11 03:24:07;;;;;;;7.57;6.40;;;;;;;16.12;75.01;98792.06;5022052;28;20110;-91
2023/06/11 03:26:33;;;;;;;13.02;6.68;;;;;;;16.04;75.16;98783.91;5020628;28;20033;-91
2023/06/11 03:28:59;;;;;;;10.20;6.32;;;;;;;16.11;74.84;98797.81;5018252;28;20028;-91
2023/06/11 03:31:25;;;;;;;6.70;5.68;;;;;;;16.33;74.04;98802.28;5018303;28;20055;-89
2023/06/11 03:33:50;;;;;;;7.97;6.10;;;;;;;16.54;73.34;98800.53;5016624;28;20033;-91
2023/06/11 03:36:16;;;;;;;7.45;5.97;;;;;;;16.71;72.52;98799.69;5015244;28;20033;-91
2023/06/11 03:38:41;;;;;;;8.90;6.05;;;;;;;16.84;72.54;98802.56;5007649;28;20028;-91
2023/06/11 03:41:08;;;;;;;10.35;6.43;;;;;;;16.95;71.87;98801.91;5010676;28;20029;-90
2023/06/11 03:43:33;;;;;;;10.60;5.80;;;;;;;16.92;72.62;98805.25;5034613;28;20037;-91
2023/06/11 03:45:59;;;;;;;10.57;6.60;;;;;;;16.88;73.14;98809.75;5016554;28;20392;-91
2023/06/11 03:48:24;;;;;;;7.88;6.55;;;;;;;16.86;73.10;98800.31;5016998;28;20021;-92
2023/06/11 03:50:50;;;;;;;8.15;6.43;;;;;;;16.90;73.36;98817.59;5028269;28;20032;-91
2023/06/11 03:53:15;;;;;;;9.35;6.22;;;;;;;16.84;73.30;98800.63;5008853;28;20055;-92
2023/06/11 03:55:41;;;;;;;8.07;6.30;;;;;;;16.77;73.64;98808.47;5008089;28;20013;-91
2023/06/11 03:58:07;;;;;;;8.38;6.53;;;;;;;16.75;73.47;98808.00;5008948;28;20017;-91
2023/06/11 04:00:33;;;;;;;13.25;6.25;;;;;;;16.76;73.08;98802.22;5007993;28;20032;-90
2023/06/11 04:02:59;;;;;;;8.35;6.13;;;;;;;16.81;73.30;98820.34;5007608;28;20029;-91
2023/06/11 04:05:24;;;;;;;10.57;5.88;;;;;;;16.71;72.87;98810.56;5008097;28;20033;-91
2023/06/11 04:07:50;;;;;;;12.35;6.72;;;;;;;16.72;72.86;98806.69;5007698;28;20533;-92
2023/06/11 04:10:15;;;;;;;10.65;7.07;;;;;;;16.74;72.05;98804.47;5008376;28;20033;-91
2023/06/11 04:12:40;;;;;;;14.07;6.70;;;;;;;16.87;72.67;98812.78;4988072;28;20017;-91
2023/06/11 04:15:06;;;;;;;12.15;7.78;;;;;;;16.91;72.20;98816.44;4988911;28;20060;-91
2023/06/11 04:17:33;;;;;;;14.32;8.43;;;;;;;16.87;72.60;98813.59;5000682;28;20030;-91
2023/06/11 04:19:58;;;;;;;16.27;9.77;;;;;;;16.99;71.93;98820.28;4988543;28;20033;-92
2023/06/11 04:22:24;;;;;;;17.13;9.35;;;;;;;16.99;71.85;98817.56;4987141;28;20026;-91
2023/06/11 04:24:50;;;;;;;16.77;9.48;;;;;;;17.07;71.88;98812.09;5003501;28;20036;-91
2023/06/11 04:27:16;;;;;;;18.35;9.02;;;;;;;17.06;71.78;98801.56;5004664;28;20031;-91
2023/06/11 04:29:44;;;;;;;16.92;8.65;;;;;;;17.21;71.62;98821.97;5004849;28;20029;-91
2023/06/11 04:32:09;;;;;;;28.15;9.45;;;;;;;17.27;71.05;98824.19;4988321;28;20022;-91
2023/06/11 04:34:37;;;;;;;16.38;9.77;;;;;;;17.33;71.08;98825.59;4988069;28;20557;-91
2023/06/11 04:37:04;;;;;;;18.30;10.00;;;;;;;17.38;70.38;98803.63;4993347;28;20029;-91
2023/06/11 04:39:30;;;;;;;15.70;9.13;;;;;;;17.55;69.85;98819.06;4998918;28;20029;-92
2023/06/11 04:41:55;;;;;;;16.38;9.23;;;;;;;17.64;69.75;98810.88;4997848;28;20033;-91
2023/06/11 04:44:21;;;;;;;17.77;9.60;;;;;;;17.75;69.72;98806.63;4998684;28;20033;-88
2023/06/11 04:46:47;;;;;;;16.75;8.85;;;;;;;17.84;68.89;98809.34;4988433;28;20030;-91
2023/06/11 04:49:14;;;;;;;12.18;9.10;;;;;;;17.91;68.54;98811.56;4989354;28;20048;-91
2023/06/11 04:51:40;;;;;;;13.52;8.65;;;;;;;18.04;67.99;98815.16;4986776;28;20058;-92
2023/06/11 04:54:07;;;;;;;12.43;7.20;;;;;;;18.03;68.39;98810.81;5004678;28;20052;-91
2023/06/11 04:56:35;;;;;;;13.55;6.85;;;;;;;18.15;67.73;98824.50;4987052;28;20025;-91
2023/06/11 04:59:01;;;;;;;10.52;6.88;;;;;;;18.20;67.42;98816.16;4987623;28;20032;-91
2023/06/11 05:01:30;;;;;;;13.82;6.65;;;;;;;18.37;67.00;98824.16;4987894;28;20029;-91
2023/06/11 05:03:56;;;;;;;9.07;5.50;;;;;;;18.62;65.63;98826.22;5004001;28;20033;-92
2023/06/11 05:06:23;;;;;;;9.15;6.03;;;;;;;18.62;65.93;98831.66;4987667;28;20033;-91
2023/06/11 05:08:48;;;;;;;10.23;5.63;;;;;;;18.75;65.66;98830.56;4987839;28;20029;-91
2023/06/11 05:11:14;;;;;;;8.35;5.47;;;;;;;18.69;66.04;98815.53;4988242;28;20037;-91
2023/06/11 05:13:39;;;;;;;10.18;4.40;;;;;;;18.76;65.17;98824.78;5004435;28;20029;-94
2023/06/11 05:16:05;;;;;;;7.55;4.85;;;;;;;18.84;65.20;98819.59;5004055;28;20041;-94
2023/06/11 05:18:31;;;;;;;7.93;5.18;;;;;;;18.93;65.29;98828.50;5003636;28;20411;-94
2023/06/11 05:20:56;;;;;;;8.13;4.65;;;;;;;19.03;64.89;98828.06;5003657;28;20029;-93
2023/06/11 05:23:28;;;;;;;6.72;4.47;;;;;;;18.97;64.97;98832.94;5003622;28;20029;-94
2023/06/11 05:25:58;;;;;;;11.70;5.95;;;;;;;18.98;65.51;98820.06;5004727;28;20036;-93
2023/06/11 05:28:23;;;;;;;11.73;7.35;;;;;;;19.04;65.38;98818.72;5003773;28;20032;-93
2023/06/11 05:30:49;;;;;;;10.23;6.72;;;;;;;19.15;65.04;98813.63;5003247;28;20025;-93
2023/06/11 05:33:15;;;;;;;11.45;6.18;;;;;;;19.34;64.41;98819.34;5003089;28;20040;-93
2023/06/11 05:35:42;;;;;;;11.18;6.22;;;;;;;19.44;64.74;98817.28;5003705;28;20025;-93
2023/06/11 05:38:08;;;;;;;9.18;6.15;;;;;;;19.46;64.72;98817.75;5003015;28;20040;-94
2023/06/11 05:40:36;;;;;;;15.60;7.55;;;;;;;19.51;64.39;98815.59;5003775;28;20033;-93
2023/06/11 05:43:05;;;;;;;9.80;7.03;;;;;;;19.66;64.45;98816.03;5002649;28;20029;-94
2023/06/11 05:45:41;;;;;;;19.50;11.88;;;;;;;19.94;63.54;98819.69;5003702;28;20053;-93
2023/06/11 05:48:07;;;;;;;12.68;9.20;;;;;;;20.02;63.03;98811.69;5019801;28;20088;-93
2023/06/11 05:50:32;;;;;;;12.20;8.15;;;;;;;20.08;62.76;98816.56;5002843;28;20033;-93
2023/06/11 05:52:57;;;;;;;17.63;7.80;;;;;;;20.16;63.04;98820.31;5018896;28;20057;-92
2023/06/11 05:55:24;;;;;;;12.57;7.95;;;;;;;20.20;63.60;98807.53;5006645;28;20176;-95
2023/06/11 05:57:50;;;;;;;13.27;10.23;;;;;;;20.47;61.43;98813.38;5006223;28;20033;-93
2023/06/11 06:00:16;;;;;;;12.73;7.47;;;;;;;20.52;61.48;98811.19;5022853;28;20032;-93
2023/06/11 06:02:41;;;;;;;10.25;7.30;;;;;;;20.65;62.42;98811.97;5005931;28;20025;-94
2023/06/11 06:05:07;;;;;;;9.65;7.45;;;;;;;20.63;62.16;98811.50;5021978;28;20052;-93
2023/06/11 06:07:33;;;;;;;9.07;7.45;;;;;;;20.77;62.30;98806.44;5006413;28;20025;-93
2023/06/11 06:09:58;;;;;;;13.38;7.47;;;;;;;20.85;61.56;98814.81;5006822;28;20032;-94
2023/06/11 06:12:24;;;;;;;11.77;7.75;;;;;;;20.84;61.52;98814.03;5006282;28;20044;-93
2023/06/11 06:14:49;;;;;;;9.90;7.90;;;;;;;20.86;61.10;98810.94;5022286;28;20090;-93
2023/06/11 06:17:15;;;;;;;11.20;7.82;;;;;;;20.99;61.41;98809.72;5006068;28;20056;-93
2023/06/11 06:19:40;;;;;;;10.40;6.95;;;;;;;21.14;60.60;98805.38;5005932;28;20029;-92
2023/06/11 06:22:06;;;;;;;13.38;7.60;;;;;;;21.15;60.68;98802.31;5005116;28;20025;-94
2023/06/11 06:24:31;;;;;;;11.45;6.40;;;;;;;21.30;60.88;98822.63;5023478;28;20057;-93
2023/06/11 06:26:58;;;;;;;10.48;6.25;;;;;;;21.16;60.44;98812.09;5017114;28;20032;-92
2023/06/11 06:29:23;;;;;;;12.88;6.88;;;;;;;21.31;60.05;98823.41;5035531;28;20025;-93
2023/06/11 06:31:50;;;;;;;12.05;7.72;;;;;;;21.39;59.63;98822.44;5039423;28;20001;-92
2023/06/11 06:34:15;;;;;;;9.75;6.53;;;;;;;21.50;59.53;98822.72;5032710;28;20434;-92
2023/06/11 06:36:41;;;;;;;10.90;5.93;;;;;;;21.69;58.60;98819.28;5038237;28;20021;-92
2023/06/11 06:39:06;;;;;;;12.45;6.90;;;;;;;21.82;58.57;98808.97;5031544;28;20026;-92
2023/06/11 06:41:33;;;;;;;9.75;6.88;;;;;;;21.86;58.66;98816.13;5039288;28;20029;-93
2023/06/11 06:43:59;;;;;;;10.68;6.20;;;;;;;22.05;58.55;98825.53;5023081;28;20026;-92
2023/06/11 06:46:24;;;;;;;12.18;6.47;;;;;;;22.14;57.89;98813.22;5022110;28;20128;-91
2023/06/11 06:48:51;;;;;;;8.93;6.57;;;;;;;22.13;57.78;98817.09;5037582;28;20021;-91
2023/06/11 06:51:20;;;;;;;10.73;6.70;;;;;;;22.18;57.80;98824.25;5055070;28;20040;-93
2023/06/11 06:53:51;;;;;;;8.55;5.47;;;;;;;22.23;57.73;98818.53;5037809;28;20049;-91
2023/06/11 06:56:41;;;;;;;7.47;4.70;;;;;;;22.46;57.41;98826.81;5061617;28;20032;-91
2023/06/11 06:59:09;;;;;;;9.32;5.80;;;;;;;22.48;57.01;98815.50;5064337;28;20056;-91
2023/06/11 07:01:35;;;;;;;10.40;5.90;;;;;;;22.56;56.64;98811.72;5039738;28;20029;-91
2023/06/11 07:04:02;;;;;;;7.38;5.70;;;;;;;22.65;56.77;98806.81;5037112;28;20132;-92
2023/06/11 07:06:29;;;;;;;8.43;6.03;;;;;;;22.72;56.42;98814.38;5022664;28;20123;-92
2023/06/11 07:08:54;;;;;;;7.75;5.57;;;;;;;22.80;55.81;98799.63;5038645;28;20036;-91
2023/06/11 07:11:21;;;;;;;6.70;5.35;;;;;;;22.91;55.46;98808.03;5026138;28;20013;-90
2023/06/11 07:13:47;;;;;;;6.35;4.97;;;;;;;23.02;55.35;98814.56;5026086;28;20037;-90
2023/06/11 07:16:14;;;;;;;7.00;5.30;;;;;;;23.09;54.89;98817.41;5038514;28;20029;-91
2023/06/11 07:18:39;;;;;;;9.20;4.45;;;;;;;23.26;54.86;98804.34;5039571;28;20545;-91
2023/06/11 07:21:05;;;;;;;8.93;4.65;;;;;;;23.23;54.06;98805.91;5025148;28;20028;-91
2023/06/11 07:23:32;;;;;;;7.30;4.75;;;;;;;23.35;54.08;98800.22;5009359;28;20033;-91
2023/06/11 07:25:58;;;;;;;8.95;4.82;;;;;;;23.55;53.93;98819.34;5025437;28;20479;-91
2023/06/11 07:28:24;;;;;;;9.50;5.10;;;;;;;23.56;53.37;98815.44;5059228;28;20040;-91
2023/06/11 07:30:50;;;;;;;6.20;4.50;;;;;;;23.60;53.13;98810.81;5042418;28;20029;-91
2023/06/11 07:33:17;;;;;;;8.80;4.55;;;;;;;23.71;52.99;98806.25;5025318;28;20032;-91
2023/06/11 07:35:43;;;;;;;6.35;3.78;;;;;;;23.80;51.59;98814.25;5025023;28;20115;-92
2023/06/11 07:38:09;;;;;;;8.73;4.15;;;;;;;23.84;51.76;98812.34;5011194;28;20032;-91
2023/06/11 07:40:36;;;;;;;8.15;4.72;;;;;;;23.86;52.25;98801.78;5084355;28;20077;-92
2023/06/11 07:43:02;;;;;;;6.45;4.43;;;;;;;24.00;52.00;98795.69;5051827;28;20039;-91
2023/06/11 07:45:27;;;;;;;5.82;4.45;;;;;;;24.09;50.58;98804.44;5055780;28;20036;-92
2023/06/11 07:47:53;;;;;;;4.78;3.90;;;;;;;24.00;51.58;98810.22;5026980;28;20645;-92
2023/06/11 07:50:20;;;;;;;6.15;4.68;;;;;;;23.98;52.36;98801.53;5045592;28;20108;-91
2023/06/11 07:52:46;;;;;;;6.72;4.00;;;;;;;24.04;51.97;98809.50;5025470;28;20045;-91
2023/06/11 07:55:12;;;;;;;7.82;4.65;;;;;;;24.05;51.98;98789.88;5032247;28;20039;-92
2023/06/11 07:57:38;;;;;;;6.43;3.90;;;;;;;24.22;50.99;98796.75;5019415;28;20040;-92
2023/06/11 08:00:12;;;;;;;6.35;4.20;;;;;;;24.14;51.23;98789.59;5042797;28;20103;-92
2023/06/11 08:02:41;;;;;;;5.10;3.83;;;;;;;24.12;50.01;98789.16;5006976;28;20029;-91
2023/06/11 08:05:10;;;;;;;4.97;3.85;;;;;;;24.27;51.08;98799.16;5041629;28;20036;-91
2023/06/11 08:07:36;;;;;;;6.50;3.97;;;;;;;24.34;50.89;98796.50;5042546;28;20025;-92
2023/06/11 08:10:04;;;;;;;5.95;4.40;;;;;;;24.46;51.32;98805.69;5040415;28;20517;-91
2023/06/11 08:12:31;;;;;;;7.88;4.13;;;;;;;24.35;51.16;98803.59;5040465;28;20029;-92
2023/06/11 08:14:58;;;;;;;5.38;3.80;;;;;;;24.32;51.18;98796.09;5007445;28;20131;-93
2023/06/11 08:17:24;;;;;;;6.32;3.85;;;;;;;24.46;49.90;98800.16;5009168;28;20040;-93
2023/06/11 08:19:51;;;;;;;5.85;3.88;;;;;;;24.54;50.11;98804.63;5042337;28;20036;-91
2023/06/11 08:22:17;;;;;;;4.32;3.53;;;;;;;24.63;49.49;98788.59;5041572;28;20041;-91
2023/06/11 08:24:43;;;;;;;5.60;3.85;;;;;;;24.72;49.27;98791.84;5005943;28;20060;-91
2023/06/11 08:27:09;;;;;;;6.25;3.70;;;;;;;24.81;49.69;98797.81;5020633;28;20037;-91
2023/06/11 08:29:35;;;;;;;6.60;3.85;;;;;;;24.77;49.95;98785.19;4987439;28;20445;-92
2023/06/11 08:32:01;;;;;;;6.00;4.10;;;;;;;24.75;49.94;98785.56;5004824;28;20026;-91
2023/06/11 08:34:27;;;;;;;7.00;3.97;;;;;;;25.01;48.22;98797.63;4991759;28;20036;-92
2023/06/11 08:36:52;;;;;;;9.60;4.10;;;;;;;24.98;48.27;98790.91;5024344;28;20048;-92
2023/06/11 08:39:18;;;;;;;11.13;4.38;;;;;;;25.03;46.94;98792.53;4989281;28;20052;-93
2023/06/11 08:41:43;;;;;;;7.90;3.45;;;;;;;24.88;48.01;98788.88;5007652;28;20091;-93
2023/06/11 08:44:08;;;;;;;8.23;4.25;;;;;;;25.02;48.46;98799.19;5010464;28;20033;-93
2023/06/11 08:46:35;;;;;;;8.05;3.83;;;;;;;25.07;48.02;98798.06;5011642;28;20044;-92
2023/06/11 08:49:06;;;;;;;5.45;3.65;;;;;;;25.13;48.32;98791.84;5012080;28;20029;-92
2023/06/11 08:51:38;;;;;;;4.22;3.30;;;;;;;25.18;47.02;98790.69;5007838;28;20045;-92
2023/06/11 08:54:09;;;;;;;4.07;3.53;;;;;;;25.09;47.16;98788.25;5005481;28;20041;-92
2023/06/11 08:56:35;;;;;;;6.60;4.00;;;;;;;25.21;45.68;98789.94;5007693;28;20128;-92
2023/06/11 08:59:01;;;;;;;6.88;3.40;;;;;;;25.27;45.81;98795.91;5016889;28;20127;-93
2023/06/11 09:01:26;;;;;;;4.97;3.33;;;;;;;25.29;45.47;98790.81;5037643;28;20028;-93
2023/06/11 09:03:52;;;;;;;5.03;3.75;;;;;;;25.28;44.77;98790.03;5027083;28;20041;-93
2023/06/11 09:06:18;;;;;;;5.25;3.40;;;;;;;25.16;45.84;98787.53;5032723;28;20112;-92
2023/06/11 09:08:54;;;;;;;4.07;3.30;;;;;;;25.31;45.67;98792.00;5024668;28;20101;-92
2023/06/11 09:11:20;;;;;;;5.32;3.53;;;;;;;25.34;45.81;98802.28;5026390;28;20028;-92
2023/06/11 09:13:45;;;;;;;7.00;4.25;;;;;;;25.20;43.35;98788.34;5023489;28;20052;-91
2023/06/11 09:16:11;;;;;;;10.15;4.13;;;;;;;25.21;40.87;98795.47;5022530;28;20021;-92
2023/06/11 09:18:37;;;;;;;4.95;3.72;;;;;;;25.23;41.02;98787.59;5021693;28;20416;-93
2023/06/11 09:21:03;;;;;;;5.25;3.42;;;;;;;25.38;42.46;98792.06;5023286;28;20117;-92
2023/06/11 09:23:34;;;;;;;11.50;3.90;;;;;;;25.44;41.45;98781.47;5022875;28;20021;-92
2023/06/11 09:26:00;;;;;;;5.85;3.13;;;;;;;25.53;39.15;98781.94;5020014;28;20129;-92
2023/06/11 09:28:30;;;;;;;5.65;3.72;;;;;;;25.48;44.25;98787.78;5003526;28;20067;-92
2023/06/11 09:30:56;;;;;;;5.13;3.25;;;;;;;25.66;42.38;98787.91;5039880;28;20039;-92
2023/06/11 09:33:22;;;;;;;4.68;3.72;;;;;;;25.64;43.33;98776.47;5029505;28;20124;-94
2023/06/11 09:35:50;;;;;;;5.57;3.53;;;;;;;25.69;43.99;98783.59;5020604;28;20124;-94
2023/06/11 09:38:17;;;;;;;5.47;3.80;;;;;;;25.85;44.20;98786.84;5020580;28;20029;-94
2023/06/11 09:40:51;;;;;;;8.10;3.50;;;;;;;25.68;43.82;98774.53;5003724;28;20029;-92
2023/06/11 09:43:23;;;;;;;7.95;3.80;;;;;;;25.79;43.97;98772.66;5004650;28;20040;-92
2023/06/11 09:45:52;;;;;;;5.05;3.67;;;;;;;25.96;43.79;98793.25;5020975;28;20047;-93
2023/06/11 09:48:21;;;;;;;7.72;3.45;;;;;;;26.05;44.73;98781.88;5050228;28;20028;-94
2023/06/11 09:50:50;;;;;;;4.18;3.17;;;;;;;26.10;42.48;98780.69;5021228;28;20470;-93
2023/06/11 09:53:21;;;;;;;7.22;3.33;;;;;;;25.89;43.58;98778.59;5054256;28;20128;-93
2023/06/11 09:55:50;;;;;;;4.80;3.22;;;;;;;25.82;43.54;98787.63;5031856;28;20060;-92
2023/06/11 09:58:26;;;;;;;6.18;3.50;;;;;;;26.03;42.46;98769.66;5039135;28;20501;-92
2023/06/11 10:00:58;;;;;;;8.32;3.40;;;;;;;26.13;42.60;98761.41;5044134;28;20467;-92
2023/06/11 10:03:31;;;;;;;6.60;2.97;;;;;;;26.20;42.69;98755.91;5046215;28;20025;-94
2023/06/11 10:05:57;;;;;;;6.35;3.60;;;;;;;26.26;42.78;98770.13;5025480;28;20505;-92
2023/06/11 10:08:25;;;;;;;4.57;3.20;;;;;;;26.21;42.51;98760.25;5041034;28;20462;-91
2023/06/11 10:11:01;;;;;;;4.60;3.10;;;;;;;26.38;42.49;98753.22;5042141;28;20039;-92
2023/06/11 10:13:31;;;;;;;6.53;3.08;;;;;;;26.42;41.75;98742.19;5042237;28;20040;-92
2023/06/11 10:16:06;;;;;;;5.35;3.00;;;;;;;26.37;41.76;98731.50;5042004;28;20114;-93
2023/06/11 10:18:32;;;;;;;6.03;2.80;;;;;;;26.56;42.16;98735.88;5026130;28;20111;-93
2023/06/11 10:21:03;;;;;;;5.30;3.30;;;;;;;26.61;42.13;98738.31;5057014;28;20024;-93
2023/06/11 10:23:42;;;;;;;4.38;3.20;;;;;;;26.70;42.32;98732.41;5041896;28;20414;-91
2023/06/11 10:26:11;;;;;;;13.82;5.57;;;;;;;26.70;42.26;98727.66;5041616;28;20040;-92
2023/06/11 10:28:40;;;;;;;9.43;6.68;;;;;;;26.70;42.47;98726.88;5026158;28;20033;-92
2023/06/11 10:31:06;;;;;;;4.80;3.05;;;;;;;26.77;40.17;98733.19;5011940;28;20037;-93
2023/06/11 10:33:46;;;;;;;5.40;2.85;;;;;;;26.76;41.16;98734.38;5029882;28;20048;-92
2023/06/11 10:36:47;;;;;;;5.75;3.03;;;;;;;26.81;40.14;98720.19;5042635;28;20033;-92
2023/06/11 10:39:20;;;;;;;5.22;2.83;;;;;;;26.91;41.45;98710.31;4984091;28;20038;-93
2023/06/11 10:41:46;;;;;;;6.28;3.33;;;;;;;27.06;41.64;98724.94;4972389;28;20103;-92
2023/06/11 10:44:14;;;;;;;4.65;3.08;;;;;;;27.16;41.67;98718.56;4965030;28;20041;-92
2023/06/11 10:46:53;;;;;;;5.20;2.78;;;;;;;27.20;39.68;98708.31;4976667;28;20042;-92
2023/06/11 10:49:27;;;;;;;5.63;3.17;;;;;;;27.39;39.58;98717.38;4965699;28;20041;-92
2023/06/11 10:51:54;;;;;;;8.10;3.22;;;;;;;27.58;40.57;98713.41;4989688;28;20046;-92
2023/06/11 10:54:25;;;;;;;5.32;2.80;;;;;;;27.77;39.04;98696.34;4949088;28;20038;-92
2023/06/11 10:56:51;;;;;;;9.30;3.63;;;;;;;27.61;39.98;98707.84;4949842;28;20409;-92
2023/06/11 10:59:17;;;;;;;4.15;2.78;;;;;;;27.82;39.44;98708.97;4966539;28;20051;-94
2023/06/11 11:01:44;;;;;;;6.57;2.97;;;;;;;27.90;39.50;98707.78;4957053;28;20082;-93
2023/06/11 11:04:10;;;;;;;3.83;2.72;;;;;;;27.94;39.05;98702.25;4981938;28;20579;-92
2023/06/11 11:06:39;;;;;;;5.35;2.85;;;;;;;27.97;38.13;98699.47;4971945;28;20091;-92
2023/06/11 11:09:05;;;;;;;7.25;2.90;;;;;;;28.06;37.56;98701.81;4965974;28;20097;-93
2023/06/11 11:11:33;;;;;;;4.05;2.47;;;;;;;27.97;37.62;98693.13;5032050;28;20107;-92
2023/06/11 11:14:00;;;;;;;4.85;2.78;;;;;;;27.89;38.41;98694.34;5006432;28;20037;-92
2023/06/11 11:16:25;;;;;;;6.80;2.78;;;;;;;28.04;37.70;98695.88;5005222;28;20022;-92
2023/06/11 11:18:54;;;;;;;3.70;3.00;;;;;;;28.16;37.91;98689.88;4989820;28;20033;-92
2023/06/11 11:21:26;;;;;;;4.13;2.80;;;;;;;28.23;38.15;98691.03;5005850;28;20029;-93
2023/06/11 11:23:52;;;;;;;6.13;3.13;;;;;;;28.08;37.32;98682.00;5006367;28;20500;-92
2023/06/11 11:26:19;;;;;;;4.05;2.90;;;;;;;28.10;36.33;98683.19;4989072;28;20025;-90
2023/06/11 11:28:45;;;;;;;5.75;3.03;;;;;;;28.16;35.58;98681.59;5022204;28;20037;-91